sensor_id;sensor_type;location;lat;lon;timestamp;temperature;humidity
26408;DHT22;14583;43.604;1.364;2022-10-31T00:04:11;19.70;99.90
26408;DHT22;14583;43.604;1.364;2022-10-31T00:06:36;19.70;99.90
26408;DHT22;14583;43.604;1.364;2022-10-31T00:09:03;19.70;99.90
26408;DHT22;14583;43.604;1.364;2022-10-31T00:11:29;19.80;99.90
26408;DHT22;14583;43.604;1.364;2022-10-31T00:13:57;19.80;99.90
26408;DHT22;14583;43.604;1.364;2022-10-31T00:16:24;19.80;99.90
26408;DHT22;14583;43.604;1.364;2022-10-31T00:18:52;19.70;99.90
26408;DHT22;14583;43.604;1.364;2022-10-31T00:21:17;19.60;99.90
26408;DHT22;14583;43.604;1.364;2022-10-31T00:23:43;19.50;99.90
26408;DHT22;14583;43.604;1.364;2022-10-31T00:26:09;19.50;99.90
26408;DHT22;14583;43.604;1.364;2022-10-31T00:28:34;19.50;99.90
26408;DHT22;14583;43.604;1.364;2022-10-31T00:31:01;19.50;99.90
26408;DHT22;14583;43.604;1.364;2022-10-31T00:33:27;19.50;99.90
26408;DHT22;14583;43.604;1.364;2022-10-31T00:35:54;19.50;99.90
26408;DHT22;14583;43.604;1.364;2022-10-31T00:38:19;19.50;99.90
26408;DHT22;14583;43.604;1.364;2022-10-31T00:40:45;19.60;99.90
26408;DHT22;14583;43.604;1.364;2022-10-31T00:43:10;19.60;99.90
26408;DHT22;14583;43.604;1.364;2022-10-31T00:45:36;19.70;99.90
26408;DHT22;14583;43.604;1.364;2022-10-31T00:48:02;19.60;99.90
26408;DHT22;14583;43.604;1.364;2022-10-31T00:50:27;19.60;99.90
26408;DHT22;14583;43.604;1.364;2022-10-31T00:52:53;19.50;99.90
26408;DHT22;14583;43.604;1.364;2022-10-31T00:55:18;19.50;99.90
26408;DHT22;14583;43.604;1.364;2022-10-31T00:57:47;19.50;99.90
26408;DHT22;14583;43.604;1.364;2022-10-31T01:00:13;19.50;99.90
26408;DHT22;14583;43.604;1.364;2022-10-31T01:02:39;19.40;99.90
26408;DHT22;14583;43.604;1.364;2022-10-31T01:05:05;19.40;99.90
26408;DHT22;14583;43.604;1.364;2022-10-31T01:07:30;19.40;99.90
26408;DHT22;14583;43.604;1.364;2022-10-31T01:09:56;19.40;99.90
26408;DHT22;14583;43.604;1.364;2022-10-31T01:12:22;19.40;99.90
26408;DHT22;14583;43.604;1.364;2022-10-31T01:14:47;19.40;99.90
26408;DHT22;14583;43.604;1.364;2022-10-31T01:17:13;19.30;99.90
26408;DHT22;14583;43.604;1.364;2022-10-31T01:19:39;19.30;99.90
26408;DHT22;14583;43.604;1.364;2022-10-31T01:22:05;19.30;99.90
26408;DHT22;14583;43.604;1.364;2022-10-31T01:24:32;19.30;99.90
26408;DHT22;14583;43.604;1.364;2022-10-31T01:26:57;19.30;99.90
26408;DHT22;14583;43.604;1.364;2022-10-31T01:29:23;19.20;99.90
26408;DHT22;14583;43.604;1.364;2022-10-31T01:31:49;19.20;99.90
26408;DHT22;14583;43.604;1.364;2022-10-31T01:34:16;19.30;99.90
26408;DHT22;14583;43.604;1.364;2022-10-31T01:36:43;19.40;99.90
26408;DHT22;14583;43.604;1.364;2022-10-31T01:39:12;19.30;99.90
26408;DHT22;14583;43.604;1.364;2022-10-31T01:41:47;19.30;99.90
26408;DHT22;14583;43.604;1.364;2022-10-31T01:47:06;19.40;99.90
26408;DHT22;14583;43.604;1.364;2022-10-31T01:49:54;19.40;99.90
26408;DHT22;14583;43.604;1.364;2022-10-31T01:57:32;19.40;99.90
26408;DHT22;14583;43.604;1.364;2022-10-31T02:00:02;19.40;99.90
26408;DHT22;14583;43.604;1.364;2022-10-31T02:02:29;19.40;99.90
26408;DHT22;14583;43.604;1.364;2022-10-31T02:04:56;19.30;99.90
26408;DHT22;14583;43.604;1.364;2022-10-31T02:07:28;19.30;99.90
26408;DHT22;14583;43.604;1.364;2022-10-31T02:09:57;19.30;99.90
26408;DHT22;14583;43.604;1.364;2022-10-31T02:12:22;19.40;99.90
26408;DHT22;14583;43.604;1.364;2022-10-31T02:14:49;19.40;99.90
26408;DHT22;14583;43.604;1.364;2022-10-31T02:17:16;19.40;99.90
26408;DHT22;14583;43.604;1.364;2022-10-31T02:33:46;19.30;99.90
26408;DHT22;14583;43.604;1.364;2022-10-31T02:39:24;19.30;99.90
26408;DHT22;14583;43.604;1.364;2022-10-31T02:42:17;19.30;99.90
26408;DHT22;14583;43.604;1.364;2022-10-31T02:47:22;19.30;99.90
26408;DHT22;14583;43.604;1.364;2022-10-31T02:50:29;19.30;99.90
26408;DHT22;14583;43.604;1.364;2022-10-31T02:52:50;19.20;99.90
26408;DHT22;14583;43.604;1.364;2022-10-31T02:57:54;19.10;99.90
26408;DHT22;14583;43.604;1.364;2022-10-31T03:00:20;19.10;99.90
26408;DHT22;14583;43.604;1.364;2022-10-31T03:08:25;19.20;99.90
26408;DHT22;14583;43.604;1.364;2022-10-31T03:10:58;19.20;99.90
26408;DHT22;14583;43.604;1.364;2022-10-31T03:18:58;19.10;99.90
26408;DHT22;14583;43.604;1.364;2022-10-31T03:21:45;19.10;99.90
26408;DHT22;14583;43.604;1.364;2022-10-31T03:24:12;19.00;99.90
26408;DHT22;14583;43.604;1.364;2022-10-31T03:26:42;19.10;99.90
26408;DHT22;14583;43.604;1.364;2022-10-31T03:29:12;19.00;99.90
26408;DHT22;14583;43.604;1.364;2022-10-31T03:31:46;19.00;99.90
26408;DHT22;14583;43.604;1.364;2022-10-31T03:34:14;19.00;99.90
26408;DHT22;14583;43.604;1.364;2022-10-31T03:36:41;19.00;99.90
26408;DHT22;14583;43.604;1.364;2022-10-31T03:39:11;18.90;99.90
26408;DHT22;14583;43.604;1.364;2022-10-31T03:41:42;18.90;99.90
26408;DHT22;14583;43.604;1.364;2022-10-31T03:44:12;18.90;99.90
26408;DHT22;14583;43.604;1.364;2022-10-31T03:46:40;18.90;99.90
26408;DHT22;14583;43.604;1.364;2022-10-31T03:49:06;18.90;99.90
26408;DHT22;14583;43.604;1.364;2022-10-31T03:51:51;19.00;99.90
26408;DHT22;14583;43.604;1.364;2022-10-31T03:57:22;18.90;99.90
26408;DHT22;14583;43.604;1.364;2022-10-31T03:59:52;18.90;99.90
26408;DHT22;14583;43.604;1.364;2022-10-31T04:02:23;18.90;99.90
26408;DHT22;14583;43.604;1.364;2022-10-31T04:04:51;18.80;99.90
26408;DHT22;14583;43.604;1.364;2022-10-31T04:07:18;18.80;99.90
26408;DHT22;14583;43.604;1.364;2022-10-31T04:09:46;18.90;99.90
26408;DHT22;14583;43.604;1.364;2022-10-31T04:12:15;18.90;99.90
26408;DHT22;14583;43.604;1.364;2022-10-31T04:14:43;18.90;99.90
26408;DHT22;14583;43.604;1.364;2022-10-31T04:17:12;18.90;99.90
26408;DHT22;14583;43.604;1.364;2022-10-31T04:19:39;18.90;99.90
26408;DHT22;14583;43.604;1.364;2022-10-31T04:22:06;18.90;99.90
26408;DHT22;14583;43.604;1.364;2022-10-31T04:24:31;18.90;99.90
26408;DHT22;14583;43.604;1.364;2022-10-31T04:26:57;18.90;99.90
26408;DHT22;14583;43.604;1.364;2022-10-31T04:29:22;19.00;99.90
26408;DHT22;14583;43.604;1.364;2022-10-31T04:31:48;18.90;99.90
26408;DHT22;14583;43.604;1.364;2022-10-31T04:34:14;18.90;99.90
26408;DHT22;14583;43.604;1.364;2022-10-31T04:36:39;18.80;99.90
26408;DHT22;14583;43.604;1.364;2022-10-31T04:39:05;18.80;99.90
26408;DHT22;14583;43.604;1.364;2022-10-31T04:41:30;18.70;99.90
26408;DHT22;14583;43.604;1.364;2022-10-31T04:43:56;18.80;99.90
26408;DHT22;14583;43.604;1.364;2022-10-31T04:46:22;18.80;99.90
26408;DHT22;14583;43.604;1.364;2022-10-31T04:48:48;18.80;99.90
26408;DHT22;14583;43.604;1.364;2022-10-31T04:51:13;18.80;99.90
26408;DHT22;14583;43.604;1.364;2022-10-31T04:53:39;18.80;99.90
26408;DHT22;14583;43.604;1.364;2022-10-31T04:56:05;18.80;99.90
26408;DHT22;14583;43.604;1.364;2022-10-31T04:58:30;18.80;99.90
26408;DHT22;14583;43.604;1.364;2022-10-31T05:00:56;18.80;99.90
26408;DHT22;14583;43.604;1.364;2022-10-31T05:03:22;18.80;99.90
26408;DHT22;14583;43.604;1.364;2022-10-31T05:05:48;18.70;99.90
26408;DHT22;14583;43.604;1.364;2022-10-31T05:08:14;18.70;99.90
26408;DHT22;14583;43.604;1.364;2022-10-31T05:10:40;18.70;99.90
26408;DHT22;14583;43.604;1.364;2022-10-31T05:13:06;18.70;99.90
26408;DHT22;14583;43.604;1.364;2022-10-31T05:15:32;18.70;99.90
26408;DHT22;14583;43.604;1.364;2022-10-31T05:17:57;18.70;99.90
26408;DHT22;14583;43.604;1.364;2022-10-31T05:20:25;18.70;99.90
26408;DHT22;14583;43.604;1.364;2022-10-31T05:22:53;18.60;99.90
26408;DHT22;14583;43.604;1.364;2022-10-31T05:25:21;18.60;99.90
26408;DHT22;14583;43.604;1.364;2022-10-31T05:27:49;18.60;99.90
26408;DHT22;14583;43.604;1.364;2022-10-31T05:30:19;18.50;99.90
26408;DHT22;14583;43.604;1.364;2022-10-31T05:32:47;18.60;99.90
26408;DHT22;14583;43.604;1.364;2022-10-31T05:35:18;18.50;99.90
26408;DHT22;14583;43.604;1.364;2022-10-31T05:37:45;18.60;99.90
26408;DHT22;14583;43.604;1.364;2022-10-31T05:40:12;18.60;99.90
26408;DHT22;14583;43.604;1.364;2022-10-31T05:42:39;18.60;99.90
26408;DHT22;14583;43.604;1.364;2022-10-31T05:45:15;18.60;99.90
26408;DHT22;14583;43.604;1.364;2022-10-31T05:47:42;18.60;99.90
26408;DHT22;14583;43.604;1.364;2022-10-31T05:50:08;18.50;99.90
26408;DHT22;14583;43.604;1.364;2022-10-31T05:52:34;18.50;99.90
26408;DHT22;14583;43.604;1.364;2022-10-31T05:55:00;18.50;99.90
26408;DHT22;14583;43.604;1.364;2022-10-31T05:57:26;18.50;99.90
26408;DHT22;14583;43.604;1.364;2022-10-31T05:59:51;18.50;99.90
26408;DHT22;14583;43.604;1.364;2022-10-31T06:02:19;18.50;99.90
26408;DHT22;14583;43.604;1.364;2022-10-31T06:04:45;18.50;99.90
26408;DHT22;14583;43.604;1.364;2022-10-31T06:07:10;18.50;99.90
26408;DHT22;14583;43.604;1.364;2022-10-31T06:09:36;18.50;99.90
26408;DHT22;14583;43.604;1.364;2022-10-31T06:12:01;18.50;99.90
26408;DHT22;14583;43.604;1.364;2022-10-31T06:14:27;18.40;99.90
26408;DHT22;14583;43.604;1.364;2022-10-31T06:16:54;18.50;99.90
26408;DHT22;14583;43.604;1.364;2022-10-31T06:19:27;18.50;99.90
26408;DHT22;14583;43.604;1.364;2022-10-31T06:21:52;18.40;99.90
26408;DHT22;14583;43.604;1.364;2022-10-31T06:24:18;18.40;99.90
26408;DHT22;14583;43.604;1.364;2022-10-31T06:26:43;18.40;99.90
26408;DHT22;14583;43.604;1.364;2022-10-31T06:29:09;18.40;99.90
26408;DHT22;14583;43.604;1.364;2022-10-31T06:31:34;18.40;99.90
26408;DHT22;14583;43.604;1.364;2022-10-31T06:34:00;18.40;99.90
26408;DHT22;14583;43.604;1.364;2022-10-31T06:36:26;18.50;99.90
26408;DHT22;14583;43.604;1.364;2022-10-31T06:38:51;18.40;99.90
26408;DHT22;14583;43.604;1.364;2022-10-31T06:41:17;18.30;99.90
26408;DHT22;14583;43.604;1.364;2022-10-31T06:43:46;18.20;99.90
26408;DHT22;14583;43.604;1.364;2022-10-31T06:46:12;18.20;99.90
26408;DHT22;14583;43.604;1.364;2022-10-31T06:48:39;18.30;99.90
26408;DHT22;14583;43.604;1.364;2022-10-31T06:51:05;18.20;99.90
26408;DHT22;14583;43.604;1.364;2022-10-31T06:53:31;18.10;99.90
26408;DHT22;14583;43.604;1.364;2022-10-31T06:55:57;18.10;99.90
26408;DHT22;14583;43.604;1.364;2022-10-31T06:58:23;18.10;99.90
26408;DHT22;14583;43.604;1.364;2022-10-31T07:00:49;18.10;99.90
26408;DHT22;14583;43.604;1.364;2022-10-31T07:03:15;18.10;99.90
26408;DHT22;14583;43.604;1.364;2022-10-31T07:05:41;18.10;99.90
26408;DHT22;14583;43.604;1.364;2022-10-31T07:08:10;18.10;99.90
26408;DHT22;14583;43.604;1.364;2022-10-31T07:10:37;18.10;99.90
26408;DHT22;14583;43.604;1.364;2022-10-31T07:13:05;18.20;99.90
26408;DHT22;14583;43.604;1.364;2022-10-31T07:15:34;18.30;99.90
26408;DHT22;14583;43.604;1.364;2022-10-31T07:18:04;18.30;99.90
26408;DHT22;14583;43.604;1.364;2022-10-31T07:20:31;18.20;99.90
26408;DHT22;14583;43.604;1.364;2022-10-31T07:22:57;18.20;99.90
26408;DHT22;14583;43.604;1.364;2022-10-31T07:25:23;18.30;99.90
26408;DHT22;14583;43.604;1.364;2022-10-31T07:27:50;18.20;99.90
26408;DHT22;14583;43.604;1.364;2022-10-31T07:30:16;18.20;99.90
26408;DHT22;14583;43.604;1.364;2022-10-31T07:32:49;18.30;99.90
26408;DHT22;14583;43.604;1.364;2022-10-31T07:35:19;18.40;99.90
26408;DHT22;14583;43.604;1.364;2022-10-31T07:37:46;18.30;99.90
26408;DHT22;14583;43.604;1.364;2022-10-31T07:40:12;18.40;99.90
26408;DHT22;14583;43.604;1.364;2022-10-31T07:42:40;18.40;99.90
26408;DHT22;14583;43.604;1.364;2022-10-31T07:45:08;18.30;99.90
26408;DHT22;14583;43.604;1.364;2022-10-31T07:47:46;18.30;99.90
26408;DHT22;14583;43.604;1.364;2022-10-31T07:50:16;18.40;99.90
26408;DHT22;14583;43.604;1.364;2022-10-31T07:52:42;18.60;99.90
26408;DHT22;14583;43.604;1.364;2022-10-31T07:55:08;18.70;99.90
26408;DHT22;14583;43.604;1.364;2022-10-31T07:57:34;18.80;99.90
26408;DHT22;14583;43.604;1.364;2022-10-31T08:00:00;18.90;99.90
26408;DHT22;14583;43.604;1.364;2022-10-31T08:02:25;18.90;99.90
26408;DHT22;14583;43.604;1.364;2022-10-31T08:04:51;19.00;99.90
26408;DHT22;14583;43.604;1.364;2022-10-31T08:07:18;19.10;99.90
26408;DHT22;14583;43.604;1.364;2022-10-31T08:09:43;19.30;99.90
26408;DHT22;14583;43.604;1.364;2022-10-31T08:12:09;19.40;99.90
26408;DHT22;14583;43.604;1.364;2022-10-31T08:14:34;19.40;99.90
26408;DHT22;14583;43.604;1.364;2022-10-31T08:17:00;19.50;99.90
26408;DHT22;14583;43.604;1.364;2022-10-31T08:19:26;19.60;99.90
26408;DHT22;14583;43.604;1.364;2022-10-31T08:21:52;19.70;99.90
26408;DHT22;14583;43.604;1.364;2022-10-31T08:24:20;19.80;99.90
26408;DHT22;14583;43.604;1.364;2022-10-31T08:26:46;19.90;99.90
26408;DHT22;14583;43.604;1.364;2022-10-31T08:29:11;19.90;99.90
26408;DHT22;14583;43.604;1.364;2022-10-31T08:31:37;20.00;99.90
26408;DHT22;14583;43.604;1.364;2022-10-31T08:34:03;20.00;99.90
26408;DHT22;14583;43.604;1.364;2022-10-31T08:36:29;20.00;99.90
26408;DHT22;14583;43.604;1.364;2022-10-31T08:38:55;20.10;99.90
26408;DHT22;14583;43.604;1.364;2022-10-31T08:41:21;20.00;99.90
26408;DHT22;14583;43.604;1.364;2022-10-31T08:43:47;20.10;99.90
26408;DHT22;14583;43.604;1.364;2022-10-31T08:46:13;20.10;99.90
26408;DHT22;14583;43.604;1.364;2022-10-31T08:48:38;20.10;99.90
26408;DHT22;14583;43.604;1.364;2022-10-31T08:51:04;20.20;99.90
26408;DHT22;14583;43.604;1.364;2022-10-31T08:53:30;20.20;99.90
26408;DHT22;14583;43.604;1.364;2022-10-31T08:55:56;20.20;99.90
26408;DHT22;14583;43.604;1.364;2022-10-31T08:58:23;20.30;99.90
26408;DHT22;14583;43.604;1.364;2022-10-31T09:00:53;20.40;99.90
26408;DHT22;14583;43.604;1.364;2022-10-31T09:03:22;20.50;99.90
26408;DHT22;14583;43.604;1.364;2022-10-31T09:05:48;20.50;99.90
26408;DHT22;14583;43.604;1.364;2022-10-31T09:08:14;20.60;99.90
26408;DHT22;14583;43.604;1.364;2022-10-31T09:10:41;20.50;99.90
26408;DHT22;14583;43.604;1.364;2022-10-31T09:13:11;20.50;99.90
26408;DHT22;14583;43.604;1.364;2022-10-31T09:15:39;20.40;99.90
26408;DHT22;14583;43.604;1.364;2022-10-31T09:18:05;20.50;99.90
26408;DHT22;14583;43.604;1.364;2022-10-31T09:20:33;20.50;99.90
26408;DHT22;14583;43.604;1.364;2022-10-31T09:23:01;20.40;99.90
26408;DHT22;14583;43.604;1.364;2022-10-31T09:25:27;20.40;99.90
26408;DHT22;14583;43.604;1.364;2022-10-31T09:28:00;20.40;99.90
26408;DHT22;14583;43.604;1.364;2022-10-31T09:30:28;20.50;99.90
26408;DHT22;14583;43.604;1.364;2022-10-31T09:33:00;20.50;99.90
26408;DHT22;14583;43.604;1.364;2022-10-31T09:35:26;20.60;99.90
26408;DHT22;14583;43.604;1.364;2022-10-31T09:40:22;20.80;99.90
26408;DHT22;14583;43.604;1.364;2022-10-31T09:45:47;20.80;99.90
26408;DHT22;14583;43.604;1.364;2022-10-31T09:51:45;20.80;99.90
26408;DHT22;14583;43.604;1.364;2022-10-31T09:54:41;21.00;99.90
26408;DHT22;14583;43.604;1.364;2022-10-31T09:57:14;21.00;99.90
26408;DHT22;14583;43.604;1.364;2022-10-31T09:59:41;21.10;99.90
26408;DHT22;14583;43.604;1.364;2022-10-31T10:05:04;21.30;99.90
26408;DHT22;14583;43.604;1.364;2022-10-31T10:07:53;21.40;99.90
26408;DHT22;14583;43.604;1.364;2022-10-31T10:16:03;21.70;99.90
26408;DHT22;14583;43.604;1.364;2022-10-31T10:21:32;22.00;99.90
26408;DHT22;14583;43.604;1.364;2022-10-31T10:26:41;22.10;99.90
26408;DHT22;14583;43.604;1.364;2022-10-31T10:29:16;22.30;99.90
26408;DHT22;14583;43.604;1.364;2022-10-31T10:31:46;22.30;99.90
26408;DHT22;14583;43.604;1.364;2022-10-31T10:34:18;22.30;99.90
26408;DHT22;14583;43.604;1.364;2022-10-31T10:36:54;22.30;99.90
26408;DHT22;14583;43.604;1.364;2022-10-31T10:39:35;22.40;99.90
26408;DHT22;14583;43.604;1.364;2022-10-31T10:42:10;22.40;99.90
26408;DHT22;14583;43.604;1.364;2022-10-31T10:44:55;22.60;99.90
26408;DHT22;14583;43.604;1.364;2022-10-31T10:47:43;22.60;99.90
26408;DHT22;14583;43.604;1.364;2022-10-31T10:50:19;22.70;99.90
26408;DHT22;14583;43.604;1.364;2022-10-31T10:55:33;22.80;99.90
26408;DHT22;14583;43.604;1.364;2022-10-31T10:58:11;22.90;99.90
26408;DHT22;14583;43.604;1.364;2022-10-31T11:00:45;23.10;99.90
26408;DHT22;14583;43.604;1.364;2022-10-31T11:03:16;23.10;99.90
26408;DHT22;14583;43.604;1.364;2022-10-31T11:05:51;23.10;99.90
26408;DHT22;14583;43.604;1.364;2022-10-31T11:08:25;23.10;99.90
26408;DHT22;14583;43.604;1.364;2022-10-31T11:13:45;23.20;99.90
26408;DHT22;14583;43.604;1.364;2022-10-31T11:18:48;23.40;99.90
26408;DHT22;14583;43.604;1.364;2022-10-31T11:21:30;23.50;99.90
26408;DHT22;14583;43.604;1.364;2022-10-31T11:24:19;23.50;99.90
26408;DHT22;14583;43.604;1.364;2022-10-31T11:26:47;23.50;99.90
26408;DHT22;14583;43.604;1.364;2022-10-31T11:29:23;23.60;99.90
26408;DHT22;14583;43.604;1.364;2022-10-31T11:31:52;23.60;99.90
26408;DHT22;14583;43.604;1.364;2022-10-31T11:34:34;23.60;99.90
26408;DHT22;14583;43.604;1.364;2022-10-31T11:37:23;23.60;99.90
26408;DHT22;14583;43.604;1.364;2022-10-31T11:39:52;23.60;99.90
26408;DHT22;14583;43.604;1.364;2022-10-31T11:42:26;23.70;99.90
26408;DHT22;14583;43.604;1.364;2022-10-31T11:44:54;23.80;99.90
26408;DHT22;14583;43.604;1.364;2022-10-31T11:47:29;23.90;99.90
26408;DHT22;14583;43.604;1.364;2022-10-31T11:49:56;24.00;99.90
26408;DHT22;14583;43.604;1.364;2022-10-31T11:52:25;24.20;99.90
26408;DHT22;14583;43.604;1.364;2022-10-31T11:55:02;24.30;99.90
26408;DHT22;14583;43.604;1.364;2022-10-31T11:57:44;24.30;99.90
26408;DHT22;14583;43.604;1.364;2022-10-31T12:02:45;24.50;99.90
26408;DHT22;14583;43.604;1.364;2022-10-31T12:05:18;24.50;99.90
26408;DHT22;14583;43.604;1.364;2022-10-31T12:07:46;24.50;99.90
26408;DHT22;14583;43.604;1.364;2022-10-31T12:10:13;24.60;99.90
26408;DHT22;14583;43.604;1.364;2022-10-31T12:12:46;24.70;99.90
26408;DHT22;14583;43.604;1.364;2022-10-31T12:20:37;24.60;99.90
26408;DHT22;14583;43.604;1.364;2022-10-31T12:28:39;24.10;99.90
26408;DHT22;14583;43.604;1.364;2022-10-31T12:36:37;24.20;99.90
26408;DHT22;14583;43.604;1.364;2022-10-31T12:44:21;24.70;99.90
26408;DHT22;14583;43.604;1.364;2022-10-31T12:47:27;24.50;99.90
26408;DHT22;14583;43.604;1.364;2022-10-31T12:58:21;24.50;99.90
26408;DHT22;14583;43.604;1.364;2022-10-31T13:00:53;24.40;99.90
26408;DHT22;14583;43.604;1.364;2022-10-31T13:06:47;24.40;99.90
26408;DHT22;14583;43.604;1.364;2022-10-31T13:09:22;24.40;99.90
26408;DHT22;14583;43.604;1.364;2022-10-31T13:11:53;24.40;99.90
26408;DHT22;14583;43.604;1.364;2022-10-31T13:14:42;24.30;99.90
26408;DHT22;14583;43.604;1.364;2022-10-31T13:17:20;24.20;99.90
26408;DHT22;14583;43.604;1.364;2022-10-31T13:19:49;24.30;99.90
26408;DHT22;14583;43.604;1.364;2022-10-31T13:22:29;24.30;99.90
26408;DHT22;14583;43.604;1.364;2022-10-31T13:27:59;24.30;99.90
26408;DHT22;14583;43.604;1.364;2022-10-31T13:30:38;24.20;99.90
26408;DHT22;14583;43.604;1.364;2022-10-31T13:33:19;24.20;99.90
26408;DHT22;14583;43.604;1.364;2022-10-31T13:35:55;24.10;99.90
26408;DHT22;14583;43.604;1.364;2022-10-31T13:38:29;24.00;99.90
26408;DHT22;14583;43.604;1.364;2022-10-31T13:41:02;24.00;99.90
26408;DHT22;14583;43.604;1.364;2022-10-31T13:44:02;23.90;99.90
26408;DHT22;14583;43.604;1.364;2022-10-31T13:48:58;23.70;99.90
26408;DHT22;14583;43.604;1.364;2022-10-31T13:51:26;23.70;99.90
26408;DHT22;14583;43.604;1.364;2022-10-31T13:53:58;23.60;99.90
26408;DHT22;14583;43.604;1.364;2022-10-31T13:56:30;23.60;99.90
26408;DHT22;14583;43.604;1.364;2022-10-31T13:59:15;23.60;99.90
26408;DHT22;14583;43.604;1.364;2022-10-31T14:02:02;23.50;99.90
26408;DHT22;14583;43.604;1.364;2022-10-31T14:04:44;23.50;99.90
26408;DHT22;14583;43.604;1.364;2022-10-31T14:07:19;23.40;99.90
26408;DHT22;14583;43.604;1.364;2022-10-31T14:10:02;23.40;99.90
26408;DHT22;14583;43.604;1.364;2022-10-31T14:15:26;23.40;99.90
26408;DHT22;14583;43.604;1.364;2022-10-31T14:18:00;23.30;99.90
26408;DHT22;14583;43.604;1.364;2022-10-31T14:20:39;23.20;99.90
26408;DHT22;14583;43.604;1.364;2022-10-31T14:23:31;23.10;99.90
26408;DHT22;14583;43.604;1.364;2022-10-31T14:28:50;23.10;99.90
26408;DHT22;14583;43.604;1.364;2022-10-31T14:31:39;23.00;99.90
26408;DHT22;14583;43.604;1.364;2022-10-31T14:34:17;23.00;99.90
26408;DHT22;14583;43.604;1.364;2022-10-31T14:39:51;22.90;99.90
26408;DHT22;14583;43.604;1.364;2022-10-31T14:50:59;22.80;99.90
26408;DHT22;14583;43.604;1.364;2022-10-31T14:55:51;22.80;99.90
26408;DHT22;14583;43.604;1.364;2022-10-31T14:58:21;22.70;99.90
26408;DHT22;14583;43.604;1.364;2022-10-31T15:00:53;22.70;99.90
26408;DHT22;14583;43.604;1.364;2022-10-31T15:03:34;22.60;99.90
26408;DHT22;14583;43.604;1.364;2022-10-31T15:06:13;22.60;99.90
26408;DHT22;14583;43.604;1.364;2022-10-31T15:08:44;22.60;99.90
26408;DHT22;14583;43.604;1.364;2022-10-31T15:13:50;22.60;99.90
26408;DHT22;14583;43.604;1.364;2022-10-31T15:16:39;22.60;99.90
26408;DHT22;14583;43.604;1.364;2022-10-31T15:19:10;22.50;99.90
26408;DHT22;14583;43.604;1.364;2022-10-31T15:21:43;22.50;99.90
26408;DHT22;14583;43.604;1.364;2022-10-31T15:24:12;22.50;99.90
26408;DHT22;14583;43.604;1.364;2022-10-31T15:26:45;22.50;99.90
26408;DHT22;14583;43.604;1.364;2022-10-31T15:29:13;22.50;99.90
26408;DHT22;14583;43.604;1.364;2022-10-31T15:32:33;22.50;99.90
26408;DHT22;14583;43.604;1.364;2022-10-31T15:34:42;22.50;99.90
26408;DHT22;14583;43.604;1.364;2022-10-31T15:37:12;22.40;99.90
26408;DHT22;14583;43.604;1.364;2022-10-31T15:39:39;22.40;99.90
26408;DHT22;14583;43.604;1.364;2022-10-31T15:42:17;22.30;99.90
26408;DHT22;14583;43.604;1.364;2022-10-31T15:44:44;22.30;99.90
26408;DHT22;14583;43.604;1.364;2022-10-31T15:47:17;22.30;99.90
26408;DHT22;14583;43.604;1.364;2022-10-31T15:49:50;22.30;99.90
26408;DHT22;14583;43.604;1.364;2022-10-31T15:52:39;22.30;99.90
26408;DHT22;14583;43.604;1.364;2022-10-31T15:55:18;22.30;99.90
26408;DHT22;14583;43.604;1.364;2022-10-31T15:57:48;22.30;99.90
26408;DHT22;14583;43.604;1.364;2022-10-31T16:00:41;22.30;99.90
26408;DHT22;14583;43.604;1.364;2022-10-31T16:05:55;22.30;99.90
26408;DHT22;14583;43.604;1.364;2022-10-31T16:10:57;22.20;99.90
26408;DHT22;14583;43.604;1.364;2022-10-31T16:13:30;22.10;99.90
26408;DHT22;14583;43.604;1.364;2022-10-31T16:16:02;22.10;99.90
26408;DHT22;14583;43.604;1.364;2022-10-31T16:18:34;22.10;99.90
26408;DHT22;14583;43.604;1.364;2022-10-31T16:21:00;22.10;99.90
26408;DHT22;14583;43.604;1.364;2022-10-31T16:23:27;22.10;99.90
26408;DHT22;14583;43.604;1.364;2022-10-31T16:25:53;22.10;99.90
26408;DHT22;14583;43.604;1.364;2022-10-31T16:28:24;22.10;99.90
26408;DHT22;14583;43.604;1.364;2022-10-31T16:30:59;22.00;99.90
26408;DHT22;14583;43.604;1.364;2022-10-31T16:33:28;22.00;99.90
26408;DHT22;14583;43.604;1.364;2022-10-31T16:35:57;22.00;99.90
26408;DHT22;14583;43.604;1.364;2022-10-31T16:38:23;22.00;99.90
26408;DHT22;14583;43.604;1.364;2022-10-31T16:40:50;22.00;99.90
26408;DHT22;14583;43.604;1.364;2022-10-31T16:43:17;22.00;99.90
26408;DHT22;14583;43.604;1.364;2022-10-31T16:45:52;21.90;99.90
26408;DHT22;14583;43.604;1.364;2022-10-31T16:48:22;21.90;99.90
26408;DHT22;14583;43.604;1.364;2022-10-31T16:50:49;21.90;99.90
26408;DHT22;14583;43.604;1.364;2022-10-31T16:53:16;21.80;99.90
26408;DHT22;14583;43.604;1.364;2022-10-31T16:56:02;21.80;99.90
26408;DHT22;14583;43.604;1.364;2022-10-31T16:58:30;21.80;99.90
26408;DHT22;14583;43.604;1.364;2022-10-31T17:01:01;21.80;99.90
26408;DHT22;14583;43.604;1.364;2022-10-31T17:03:27;21.70;99.90
26408;DHT22;14583;43.604;1.364;2022-10-31T17:05:53;21.80;99.90
26408;DHT22;14583;43.604;1.364;2022-10-31T17:08:21;21.70;99.90
26408;DHT22;14583;43.604;1.364;2022-10-31T17:10:47;21.70;99.90
26408;DHT22;14583;43.604;1.364;2022-10-31T17:13:27;21.70;99.90
26408;DHT22;14583;43.604;1.364;2022-10-31T17:15:56;21.70;99.90
26408;DHT22;14583;43.604;1.364;2022-10-31T17:18:22;21.70;99.90
26408;DHT22;14583;43.604;1.364;2022-10-31T17:20:49;21.60;99.90
26408;DHT22;14583;43.604;1.364;2022-10-31T17:23:15;21.60;99.90
26408;DHT22;14583;43.604;1.364;2022-10-31T17:25:42;21.60;99.90
26408;DHT22;14583;43.604;1.364;2022-10-31T17:28:11;21.60;99.90
26408;DHT22;14583;43.604;1.364;2022-10-31T17:30:42;21.60;99.90
26408;DHT22;14583;43.604;1.364;2022-10-31T17:33:12;21.50;99.90
26408;DHT22;14583;43.604;1.364;2022-10-31T17:35:40;21.60;99.90
26408;DHT22;14583;43.604;1.364;2022-10-31T17:38:05;21.60;99.90
26408;DHT22;14583;43.604;1.364;2022-10-31T17:40:31;21.50;99.90
26408;DHT22;14583;43.604;1.364;2022-10-31T17:42:57;21.50;99.90
26408;DHT22;14583;43.604;1.364;2022-10-31T17:45:25;21.50;99.90
26408;DHT22;14583;43.604;1.364;2022-10-31T17:47:52;21.50;99.90
26408;DHT22;14583;43.604;1.364;2022-10-31T17:50:21;21.50;99.90
26408;DHT22;14583;43.604;1.364;2022-10-31T17:52:47;21.40;99.90
26408;DHT22;14583;43.604;1.364;2022-10-31T17:55:14;21.50;99.90
26408;DHT22;14583;43.604;1.364;2022-10-31T17:57:40;21.50;99.90
26408;DHT22;14583;43.604;1.364;2022-10-31T18:00:08;21.50;99.90
26408;DHT22;14583;43.604;1.364;2022-10-31T18:02:35;21.40;99.90
26408;DHT22;14583;43.604;1.364;2022-10-31T18:05:02;21.40;99.90
26408;DHT22;14583;43.604;1.364;2022-10-31T18:07:27;21.40;99.90
26408;DHT22;14583;43.604;1.364;2022-10-31T18:09:53;21.40;99.90
26408;DHT22;14583;43.604;1.364;2022-10-31T18:12:19;21.40;99.90
26408;DHT22;14583;43.604;1.364;2022-10-31T18:14:44;21.40;99.90